Página principal
METAR-TAF:

METAR-TAF

Aeroportos :

Chita, Rússia

latitude: 52-05N, longitude: 113-29E, altura: 685 m

Observação actual do tempo

O boletim foi feito há 24 minutos, às 16:30 UTC
Vento 4 kt de norte
Temperatura 4°C
Humidade 75%
Pressão 1022 hPa
Visibilidade 10 km ou mais

METAR: UIAA 231630Z AUTO 01002MPS 9999 NCD 04/M00 Q1022 RMK QFE707/0943

Hora: 01:54 (16:54 UTC)

Previsão

O boletim foi feito há 2 horas e 54 minutos, às 14:00 UTC
Previsão válida de 23 às 15 UTC a 24 às 15 UTC
Vento 6 kt de nordeste
Visibilidade 10 km ou mais
Temporariamente
de 23 às 18 UTC a 24 às 01 UTC
Visibilidade: 0500 m
Nuvens fragmentadasa uma altura de 100 ft
nevoeiro

TAF: UIAA 231400Z 2315/2415 04003MPS 9999 NSC TEMPO 2318/2401 0500 FG BKN001

Observações e previsões do tempo de mais de 4000 aeroportos (mensagens METAR e TAF).

As estações disponíveis são os pontos amarelos e vermelhos sobre o mapa.

Mova o rato sobre o mapa para ver o nome da estação.

Depois clique no ponto para visualizar as observações e previsões meteorológicas.

Para alterar o mapa : clique nos botões verdes com uma cruz preta para aumentar o zoom; no botão verde com uma pitada de zoom; ou nas setas verdes para mapas adjacentes.


METAR-TAF: